createdAt,value
2023-02-27T00:02:21.762Z,1.23
2023-02-27T00:04:51.148Z,1.45
2023-02-27T00:07:19.037Z,1.30
2023-02-27T00:09:46.872Z,1.65
2023-02-27T00:12:14.720Z,1.52
2023-02-27T00:14:42.607Z,1.40
2023-02-27T00:17:10.453Z,1.50
2023-02-27T00:19:38.347Z,1.70
2023-02-27T00:22:07.546Z,1.40
2023-02-27T00:24:35.433Z,1.27
2023-02-27T00:27:03.265Z,1.73
2023-02-27T00:29:31.098Z,1.60
2023-02-27T00:31:59.050Z,1.50
2023-02-27T00:34:27.164Z,1.40
2023-02-27T00:36:55.065Z,1.35
2023-02-27T00:39:26.686Z,1.20
2023-02-27T00:41:54.539Z,1.30
2023-02-27T00:44:22.362Z,1.30
2023-02-27T00:46:50.259Z,1.58
2023-02-27T00:49:19.751Z,1.40
2023-02-27T00:51:48.683Z,1.35
2023-02-27T00:54:16.477Z,1.25
2023-02-27T00:56:45.679Z,1.45
2023-02-27T00:59:13.517Z,1.27
2023-02-27T01:01:41.458Z,1.40
2023-02-27T01:04:09.355Z,1.00
2023-02-27T01:06:37.202Z,1.90
2023-02-27T01:09:05.282Z,1.40
2023-02-27T01:11:33.145Z,1.67
2023-02-27T01:14:02.879Z,1.92
2023-02-27T01:16:30.766Z,1.42
2023-02-27T01:18:58.743Z,1.13
2023-02-27T01:21:27.601Z,1.73
2023-02-27T01:23:55.652Z,2.00
2023-02-27T01:26:23.506Z,1.50
2023-02-27T01:28:51.358Z,2.03
2023-02-27T01:31:20.623Z,1.73
2023-02-27T01:33:49.054Z,1.60
2023-02-27T01:36:17.021Z,1.77
2023-02-27T01:38:44.856Z,1.50
2023-02-27T01:41:13.228Z,1.75
2023-02-27T01:43:55.938Z,1.50
2023-02-27T01:46:25.305Z,2.03
2023-02-27T01:48:55.696Z,1.30
2023-02-27T01:51:23.806Z,1.17
2023-02-27T01:53:53.563Z,1.50
2023-02-27T01:56:23.667Z,1.45
2023-02-27T01:58:54.205Z,1.70
2023-02-27T02:01:23.377Z,1.85
2023-02-27T02:03:57.733Z,1.38
2023-02-27T02:06:25.981Z,1.45
2023-02-27T02:08:55.021Z,1.73
2023-02-27T02:11:24.259Z,1.67
2023-02-27T02:13:56.711Z,1.48
2023-02-27T02:16:46.492Z,1.45
2023-02-27T02:19:36.270Z,1.25
2023-02-27T02:22:28.042Z,1.25
2023-02-27T02:25:33.354Z,1.65
2023-02-27T02:28:10.047Z,1.45
2023-02-27T02:31:04.326Z,1.40
2023-02-27T02:34:04.362Z,1.75
2023-02-27T02:37:17.338Z,1.60
2023-02-27T02:40:08.241Z,1.37
2023-02-27T02:42:39.669Z,1.65
2023-02-27T02:45:14.776Z,1.23
2023-02-27T02:47:51.340Z,2.00
2023-02-27T02:50:23.633Z,1.65
2023-02-27T02:52:59.167Z,1.93
2023-02-27T02:55:33.750Z,1.73
2023-02-27T02:58:05.329Z,1.52
2023-02-27T03:00:34.900Z,1.95
2023-02-27T03:03:08.813Z,1.50
2023-02-27T03:05:39.062Z,1.80
2023-02-27T03:08:10.360Z,1.70
2023-02-27T03:10:43.935Z,1.65
2023-02-27T03:13:15.649Z,2.03
2023-02-27T03:15:46.428Z,1.48
2023-02-27T03:18:20.582Z,1.80
2023-02-27T03:20:50.469Z,2.00
2023-02-27T03:23:21.076Z,2.00
2023-02-27T03:25:51.284Z,1.90
2023-02-27T03:28:22.240Z,2.03
2023-02-27T03:30:54.392Z,1.65
2023-02-27T03:33:26.061Z,1.83
2023-02-27T03:36:00.678Z,1.40
2023-02-27T03:38:35.491Z,2.00
2023-02-27T03:41:11.157Z,1.73
2023-02-27T03:43:51.512Z,1.85
2023-02-27T03:46:22.420Z,1.85
2023-02-27T03:48:52.629Z,1.70
2023-02-27T03:51:21.955Z,1.52
2023-02-27T03:53:51.741Z,1.98
2023-02-27T03:56:24.626Z,1.90
2023-02-27T03:58:52.956Z,2.17
2023-02-27T04:01:20.851Z,1.73
2023-02-27T04:03:57.871Z,2.08
2023-02-27T04:07:05.237Z,2.22
2023-02-27T04:09:44.585Z,2.08
2023-02-27T04:12:27.163Z,2.13
2023-02-27T04:15:06.734Z,1.90
2023-02-27T04:17:39.424Z,2.15
2023-02-27T04:20:33.074Z,1.95
2023-02-27T04:23:04.283Z,1.90
2023-02-27T04:25:41.126Z,2.72
2023-02-27T04:28:18.962Z,2.10
2023-02-27T04:30:53.184Z,2.40
2023-02-27T04:33:26.955Z,2.17
2023-02-27T04:35:58.010Z,2.60
2023-02-27T04:38:29.407Z,2.83
2023-02-27T04:40:59.520Z,2.35
2023-02-27T04:43:29.715Z,2.30
2023-02-27T04:45:59.679Z,2.33
2023-02-27T04:48:29.504Z,2.40
2023-02-27T04:50:59.871Z,2.42
2023-02-27T04:53:31.297Z,2.72
2023-02-27T04:56:03.743Z,3.15
2023-02-27T04:58:36.012Z,2.72
2023-02-27T05:01:07.933Z,3.08
2023-02-27T05:03:37.629Z,3.00
2023-02-27T05:06:05.751Z,2.65
2023-02-27T05:08:36.828Z,3.10
2023-02-27T05:11:09.841Z,3.00
2023-02-27T05:16:11.029Z,3.05
2023-02-27T05:18:39.160Z,2.83
2023-02-27T05:21:12.454Z,3.55
2023-02-27T05:23:45.136Z,3.20
2023-02-27T05:26:17.833Z,3.22
2023-02-27T05:28:53.524Z,3.60
2023-02-27T05:31:26.448Z,3.38
2023-02-27T05:33:59.108Z,3.65
2023-02-27T05:36:31.965Z,3.53
2023-02-27T05:39:01.201Z,3.90
2023-02-27T05:41:33.126Z,3.35
2023-02-27T05:44:05.803Z,2.97
2023-02-27T05:46:36.982Z,3.20
2023-02-27T05:49:09.153Z,3.88
2023-02-27T05:51:39.058Z,4.30
2023-02-27T05:54:11.669Z,4.05
2023-02-27T05:56:40.386Z,3.40
2023-02-27T05:59:14.614Z,4.55
2023-02-27T06:01:43.690Z,3.72
2023-02-27T06:04:12.611Z,3.92
2023-02-27T06:06:41.950Z,3.92
2023-02-27T06:09:09.966Z,4.30
2023-02-27T06:11:37.824Z,4.50
2023-02-27T06:14:05.691Z,3.80
2023-02-27T06:16:38.317Z,4.97
2023-02-27T06:19:06.444Z,4.85
2023-02-27T06:21:34.382Z,4.75
2023-02-27T06:24:02.331Z,4.65
2023-02-27T06:26:30.154Z,4.03
2023-02-27T06:28:58.015Z,4.22
2023-02-27T06:31:25.852Z,4.57
2023-02-27T06:33:55.714Z,5.00
2023-02-27T06:36:23.617Z,5.55
2023-02-27T06:38:51.498Z,5.63
2023-02-27T06:41:19.390Z,4.85
2023-02-27T06:43:47.254Z,4.35
2023-02-27T06:46:15.754Z,3.80
2023-02-27T06:48:43.647Z,3.88
2023-02-27T06:51:12.857Z,4.75
2023-02-27T06:53:40.722Z,4.68
2023-02-27T06:56:09.332Z,5.13
2023-02-27T06:58:37.211Z,5.22
2023-02-27T07:01:05.313Z,4.75
2023-02-27T07:03:33.171Z,4.47
2023-02-27T07:06:02.448Z,4.70
2023-02-27T07:08:31.905Z,4.93
2023-02-27T07:10:59.846Z,5.18
2023-02-27T07:13:27.793Z,5.60
2023-02-27T07:15:55.737Z,5.07
2023-02-27T07:18:24.924Z,5.00
2023-02-27T07:20:55.256Z,5.07
2023-02-27T07:23:23.609Z,5.63
2023-02-27T07:25:52.863Z,4.43
2023-02-27T07:28:20.927Z,4.25
2023-02-27T07:30:48.832Z,3.95
2023-02-27T07:33:16.748Z,4.13
2023-02-27T07:35:46.389Z,5.07
2023-02-27T07:38:14.405Z,4.30
2023-02-27T07:40:42.400Z,4.60
2023-02-27T07:43:11.646Z,4.40
2023-02-27T07:45:39.751Z,4.10
2023-02-27T07:48:08.687Z,4.22
2023-02-27T07:50:36.556Z,4.15
2023-02-27T07:53:05.467Z,3.95
2023-02-27T07:55:33.236Z,3.63
2023-02-27T07:58:01.078Z,3.28
2023-02-27T08:00:30.348Z,3.80
2023-02-27T08:02:58.479Z,3.80
2023-02-27T08:05:26.314Z,3.33
2023-02-27T08:07:54.285Z,3.28
2023-02-27T08:10:22.273Z,3.05
2023-02-27T08:12:50.618Z,3.13
2023-02-27T08:15:18.904Z,3.55
2023-02-27T08:17:48.751Z,3.30
2023-02-27T08:20:16.977Z,3.10
2023-02-27T08:22:45.117Z,2.90
2023-02-27T08:25:13.366Z,4.80
2023-02-27T08:27:41.815Z,3.35
2023-02-27T08:30:13.835Z,3.15
2023-02-27T08:32:42.102Z,3.17
2023-02-27T08:35:11.712Z,3.10
2023-02-27T08:37:39.913Z,3.00
2023-02-27T08:40:10.990Z,2.50
2023-02-27T08:42:39.074Z,2.97
2023-02-27T08:45:08.458Z,2.40
2023-02-27T08:47:37.256Z,1.50
2023-02-27T08:50:06.159Z,1.80
2023-02-27T08:52:35.537Z,1.40
2023-02-27T08:55:03.563Z,1.50
2023-02-27T08:57:31.971Z,1.90
2023-02-27T09:00:00.200Z,1.00
2023-02-27T09:02:28.439Z,1.25
2023-02-27T09:04:56.624Z,1.45
2023-02-27T09:07:24.733Z,1.20
2023-02-27T09:09:54.193Z,1.17
2023-02-27T09:12:22.467Z,1.00
2023-02-27T09:14:50.447Z,0.95
2023-02-27T09:17:18.531Z,1.00
2023-02-27T09:19:46.465Z,1.30
2023-02-27T09:22:14.478Z,0.95
2023-02-27T09:24:42.423Z,1.10
2023-02-27T09:27:11.868Z,0.70
2023-02-27T09:29:40.054Z,0.93
2023-02-27T09:32:08.389Z,1.00
2023-02-27T09:34:36.596Z,0.90
2023-02-27T09:37:04.839Z,0.70
2023-02-27T09:39:32.990Z,0.90
2023-02-27T09:42:03.000Z,1.00
2023-02-27T09:44:46.113Z,0.70
2023-02-27T09:47:20.067Z,0.90
2023-02-27T09:49:59.825Z,1.00
2023-02-27T09:52:28.259Z,1.38
2023-02-27T09:54:56.107Z,0.80
2023-02-27T09:57:32.890Z,1.05
2023-02-27T10:00:05.649Z,0.70
2023-02-27T10:02:45.840Z,0.88
2023-02-27T10:05:23.680Z,1.00
2023-02-27T10:07:57.166Z,0.90
2023-02-27T10:10:28.963Z,0.90
2023-02-27T10:13:07.573Z,0.98
2023-02-27T10:15:40.500Z,1.05
2023-02-27T10:18:25.580Z,0.80
2023-02-27T10:20:57.582Z,0.88
2023-02-27T10:23:33.461Z,3.03
2023-02-27T10:26:02.258Z,1.10
2023-02-27T10:28:34.304Z,1.10
2023-02-27T10:31:03.834Z,1.17
2023-02-27T10:33:36.347Z,0.85
2023-02-27T10:36:17.923Z,1.00
2023-02-27T10:38:53.908Z,0.98
2023-02-27T10:41:23.065Z,0.82
2023-02-27T10:43:53.009Z,0.77
2023-02-27T10:46:26.339Z,1.00
2023-02-27T10:48:54.853Z,0.75
2023-02-27T10:51:25.890Z,0.50
2023-02-27T10:54:21.975Z,1.20
2023-02-27T10:56:52.274Z,1.08
2023-02-27T10:59:22.525Z,0.77
2023-02-27T11:01:53.149Z,0.90
2023-02-27T11:04:33.725Z,0.88
2023-02-27T11:07:04.850Z,0.85
2023-02-27T11:09:35.264Z,0.93
2023-02-27T11:12:13.671Z,0.80
2023-02-27T11:14:53.237Z,1.00
2023-02-27T11:17:26.622Z,0.88
2023-02-27T11:19:54.520Z,0.60
2023-02-27T11:22:24.796Z,0.70
2023-02-27T11:25:11.295Z,0.80
2023-02-27T11:27:39.206Z,1.00
2023-02-27T11:30:11.328Z,0.63
2023-02-27T11:32:43.991Z,1.00
2023-02-27T11:35:23.645Z,1.48
2023-02-27T11:37:52.792Z,1.00
2023-02-27T11:40:23.664Z,5.50
2023-02-27T11:42:53.436Z,1.25
2023-02-27T11:46:13.847Z,1.45
2023-02-27T11:48:21.360Z,1.02
2023-02-27T11:51:08.286Z,1.05
2023-02-27T11:53:50.327Z,1.00
2023-02-27T11:56:23.422Z,0.93
2023-02-27T11:58:59.597Z,1.00
2023-02-27T12:01:30.785Z,0.98
2023-02-27T12:04:03.727Z,1.13
2023-02-27T12:09:03.060Z,0.70
2023-02-27T12:11:35.825Z,0.73
2023-02-27T12:14:07.935Z,0.88
2023-02-27T12:16:40.674Z,1.40
2023-02-27T12:19:16.575Z,1.05
2023-02-27T12:21:48.389Z,0.93
2023-02-27T12:24:21.823Z,0.95
2023-02-27T12:26:57.633Z,0.90
2023-02-27T12:29:30.255Z,0.80
2023-02-27T12:32:01.748Z,1.23
2023-02-27T12:34:36.403Z,1.10
2023-02-27T12:37:05.899Z,1.00
2023-02-27T12:39:34.938Z,0.95
2023-02-27T12:42:55.116Z,1.20
2023-02-27T12:45:30.644Z,1.25
2023-02-27T12:48:06.645Z,1.10
2023-02-27T12:50:45.086Z,0.85
2023-02-27T12:53:28.504Z,0.90
2023-02-27T12:56:02.380Z,1.75
2023-02-27T13:01:04.748Z,2.03
2023-02-27T13:03:36.671Z,1.40
2023-02-27T13:06:08.906Z,1.05
2023-02-27T13:08:49.575Z,1.20
2023-02-27T13:11:24.954Z,0.90
2023-02-27T13:13:58.340Z,0.70
2023-02-27T13:16:31.591Z,0.90
2023-02-27T13:19:04.604Z,0.55
2023-02-27T13:21:36.505Z,0.55
2023-02-27T13:24:17.373Z,0.75
2023-02-27T13:26:48.491Z,0.50
2023-02-27T13:29:20.028Z,0.98
2023-02-27T13:31:54.501Z,0.90
2023-02-27T13:34:27.090Z,0.82
2023-02-27T13:36:59.121Z,0.70
2023-02-27T13:40:01.943Z,1.00
2023-02-27T13:42:53.133Z,1.73
2023-02-27T13:45:51.689Z,0.68
2023-02-27T13:48:37.983Z,0.88
2023-02-27T13:51:07.140Z,0.98
2023-02-27T13:53:34.997Z,0.77
2023-02-27T13:56:21.878Z,0.82
2023-02-27T13:58:50.043Z,0.90
2023-02-27T14:01:24.855Z,0.70
2023-02-27T14:03:58.292Z,0.70
2023-02-27T14:06:27.488Z,0.63
2023-02-27T14:09:08.900Z,0.52
2023-02-27T14:11:42.199Z,0.60
2023-02-27T14:14:29.966Z,0.82
2023-02-27T14:17:01.593Z,0.70
2023-02-27T14:19:45.594Z,0.82
2023-02-27T14:22:39.262Z,0.90
2023-02-27T14:25:23.000Z,0.80
2023-02-27T14:27:56.833Z,0.85
2023-02-27T14:30:32.470Z,0.70
2023-02-27T14:33:08.631Z,0.65
2023-02-27T14:35:37.220Z,0.80
2023-02-27T14:38:10.645Z,0.77
2023-02-27T14:40:42.182Z,0.85
2023-02-27T14:43:18.539Z,0.80
2023-02-27T14:45:46.415Z,0.80
2023-02-27T14:48:25.140Z,0.80
2023-02-27T14:50:54.121Z,0.68
2023-02-27T14:53:24.454Z,0.70
2023-02-27T14:55:57.632Z,0.90
2023-02-27T14:58:26.136Z,0.77
2023-02-27T15:01:07.440Z,0.90
2023-02-27T15:03:42.100Z,1.00
2023-02-27T15:06:17.399Z,0.68
2023-02-27T15:08:48.922Z,1.05
2023-02-27T15:11:18.733Z,0.80
2023-02-27T15:13:47.837Z,0.70
2023-02-27T15:16:38.756Z,0.80
2023-02-27T15:19:17.228Z,0.90
2023-02-27T15:21:49.771Z,1.00
2023-02-27T15:24:23.975Z,1.00
2023-02-27T15:26:54.556Z,0.80
2023-02-27T15:29:25.144Z,0.80
2023-02-27T15:31:53.946Z,0.88
2023-02-27T15:34:23.208Z,1.00
2023-02-27T15:36:53.533Z,1.00
2023-02-27T15:39:23.046Z,1.00
2023-02-27T15:41:52.800Z,0.80
2023-02-27T15:44:22.761Z,0.75
2023-02-27T15:46:51.155Z,1.10
2023-02-27T15:49:20.769Z,0.85
2023-02-27T15:51:56.605Z,0.90
2023-02-27T15:54:24.494Z,0.70
2023-02-27T15:56:52.907Z,0.68
2023-02-27T15:59:20.780Z,0.80
2023-02-27T16:01:49.814Z,1.00
2023-02-27T16:04:24.500Z,0.90
2023-02-27T16:06:59.759Z,0.90
2023-02-27T16:09:31.116Z,0.85
2023-02-27T16:12:13.151Z,0.98
2023-02-27T16:14:42.965Z,0.93
2023-02-27T16:17:25.037Z,1.13
2023-02-27T16:19:53.431Z,0.80
2023-02-27T16:22:23.124Z,1.10
2023-02-27T16:24:51.872Z,1.17
2023-02-27T16:27:23.401Z,0.82
2023-02-27T16:29:52.437Z,1.10
2023-02-27T16:32:24.894Z,1.00
2023-02-27T16:34:53.535Z,1.00
2023-02-27T16:37:24.778Z,1.35
2023-02-27T16:39:54.372Z,0.93
2023-02-27T16:42:23.550Z,1.20
2023-02-27T16:44:51.400Z,1.17
2023-02-27T16:47:19.402Z,1.60
2023-02-27T16:49:47.547Z,1.27
2023-02-27T16:52:15.405Z,2.65
2023-02-27T16:54:44.807Z,1.95
2023-02-27T16:57:14.009Z,1.50
2023-02-27T16:59:42.431Z,1.52
2023-02-27T17:02:13.837Z,1.20
2023-02-27T17:04:44.143Z,1.20
2023-02-27T17:07:15.889Z,1.70
2023-02-27T17:09:45.584Z,1.30
2023-02-27T17:12:13.815Z,1.52
2023-02-27T17:14:41.897Z,1.67
2023-02-27T17:17:11.045Z,1.23
2023-02-27T17:19:39.199Z,1.30
2023-02-27T17:22:07.021Z,1.52
2023-02-27T17:24:35.257Z,1.65
2023-02-27T17:27:04.388Z,1.75
2023-02-27T17:29:32.328Z,2.50
2023-02-27T17:32:01.838Z,2.03
2023-02-27T17:34:31.068Z,2.10
2023-02-27T17:36:58.912Z,1.88
2023-02-27T17:39:27.170Z,2.30
2023-02-27T17:41:55.116Z,2.40
2023-02-27T17:44:24.325Z,2.50
2023-02-27T17:46:52.176Z,2.50
2023-02-27T17:49:20.084Z,2.47
2023-02-27T17:51:48.494Z,2.97
2023-02-27T17:54:16.384Z,3.63
2023-02-27T17:56:44.597Z,3.58
2023-02-27T17:59:12.432Z,3.47
2023-02-27T18:01:41.651Z,3.45
2023-02-27T18:04:11.336Z,2.88
2023-02-27T18:06:39.579Z,2.90
2023-02-27T18:09:07.428Z,2.60
2023-02-27T18:11:37.406Z,3.05
2023-02-27T18:14:05.296Z,3.45
2023-02-27T18:16:33.875Z,3.20
2023-02-27T18:19:05.309Z,3.75
2023-02-27T18:21:33.658Z,3.72
2023-02-27T18:24:05.011Z,3.83
2023-02-27T18:26:33.881Z,4.18
2023-02-27T18:29:05.217Z,3.58
2023-02-27T18:31:34.951Z,3.33
2023-02-27T18:34:04.546Z,3.53
2023-02-27T18:36:33.375Z,3.95
2023-02-27T18:39:01.809Z,4.15
2023-02-27T18:41:30.217Z,4.28
2023-02-27T18:43:58.542Z,4.05
2023-02-27T18:46:26.914Z,4.65
2023-02-27T18:48:55.304Z,4.88
2023-02-27T18:51:24.547Z,4.57
2023-02-27T18:53:52.861Z,5.65
2023-02-27T18:56:22.984Z,5.00
2023-02-27T18:58:51.267Z,4.55
2023-02-27T19:01:21.017Z,4.55
2023-02-27T19:03:49.298Z,4.35
2023-02-27T19:06:17.403Z,4.15
2023-02-27T19:08:46.782Z,3.80
2023-02-27T19:11:23.034Z,3.45
2023-02-27T19:13:50.977Z,3.40
2023-02-27T19:16:20.008Z,3.67
2023-02-27T19:18:48.027Z,3.95
2023-02-27T19:21:15.871Z,3.47
2023-02-27T19:23:44.367Z,3.10
2023-02-27T19:26:13.590Z,3.40
2023-02-27T19:28:41.594Z,3.42
2023-02-27T19:31:10.159Z,4.43
2023-02-27T19:33:38.547Z,4.57
2023-02-27T19:36:07.715Z,5.82
2023-02-27T19:38:35.616Z,5.40
2023-02-27T19:41:03.746Z,6.05
2023-02-27T19:43:32.988Z,5.60
2023-02-27T19:46:00.869Z,5.93
2023-02-27T19:48:28.772Z,6.60
2023-02-27T19:50:56.646Z,7.95
2023-02-27T19:53:26.190Z,7.25
2023-02-27T19:55:59.388Z,8.13
2023-02-27T19:58:27.293Z,6.70
2023-02-27T20:00:56.711Z,6.88
2023-02-27T20:03:24.894Z,6.05
2023-02-27T20:05:52.909Z,6.40
2023-02-27T20:08:20.839Z,5.65
2023-02-27T20:10:55.215Z,5.55
2023-02-27T20:13:23.245Z,5.82
2023-02-27T20:16:00.135Z,5.78
2023-02-27T20:18:29.873Z,5.55
2023-02-27T20:21:02.639Z,6.53
2023-02-27T20:23:30.918Z,5.57
2023-02-27T20:25:58.758Z,4.78
2023-02-27T20:28:28.079Z,3.95
2023-02-27T20:30:56.137Z,3.60
2023-02-27T20:33:25.319Z,3.88
2023-02-27T20:35:53.292Z,4.20
2023-02-27T20:38:22.696Z,4.22
2023-02-27T20:40:51.268Z,3.95
2023-02-27T20:43:19.121Z,3.88
2023-02-27T20:45:47.081Z,4.28
2023-02-27T20:48:14.956Z,4.35
2023-02-27T20:50:44.221Z,4.28
2023-02-27T20:53:12.084Z,3.85
2023-02-27T20:55:47.774Z,4.47
2023-02-27T20:58:15.833Z,3.97
2023-02-27T21:00:43.824Z,3.63
2023-02-27T21:03:11.641Z,3.85
2023-02-27T21:05:39.511Z,3.80
2023-02-27T21:08:08.777Z,3.42
2023-02-27T21:10:39.180Z,4.10
2023-02-27T21:13:07.301Z,4.00
2023-02-27T21:15:36.081Z,3.78
2023-02-27T21:18:04.007Z,4.45
2023-02-27T21:20:32.162Z,3.70
2023-02-27T21:22:59.993Z,3.38
2023-02-27T21:25:29.651Z,4.15
2023-02-27T21:28:02.115Z,3.80
2023-02-27T21:30:30.470Z,3.95
2023-02-27T21:32:58.587Z,3.90
2023-02-27T21:35:26.539Z,4.68
2023-02-27T21:37:57.219Z,4.00
2023-02-27T21:40:25.196Z,4.60
2023-02-27T21:42:54.460Z,4.72
2023-02-27T21:45:22.596Z,4.90
2023-02-27T21:47:50.676Z,5.15
2023-02-27T21:50:21.790Z,4.47
2023-02-27T21:52:50.201Z,5.25
2023-02-27T21:55:18.067Z,4.97
2023-02-27T21:57:46.495Z,4.88
2023-02-27T22:00:16.561Z,5.07
2023-02-27T22:02:44.495Z,5.57
2023-02-27T22:05:12.597Z,6.07
2023-02-27T22:07:40.463Z,5.18
2023-02-27T22:10:08.887Z,4.45
2023-02-27T22:12:36.747Z,5.57
2023-02-27T22:15:05.440Z,5.47
2023-02-27T22:17:34.651Z,5.30
2023-02-27T22:20:02.985Z,5.43
2023-02-27T22:22:30.839Z,5.95
2023-02-27T22:24:58.699Z,5.63
2023-02-27T22:27:26.573Z,5.00
2023-02-27T22:29:54.463Z,6.05
2023-02-27T22:32:22.429Z,5.00
2023-02-27T22:34:51.631Z,4.68
2023-02-27T22:37:19.926Z,4.40
2023-02-27T22:39:47.885Z,5.53
2023-02-27T22:42:15.863Z,5.00
2023-02-27T22:44:43.907Z,5.45
2023-02-27T22:47:11.758Z,5.38
2023-02-27T22:49:39.879Z,4.93
2023-02-27T22:52:09.507Z,4.90
2023-02-27T22:54:37.584Z,4.93
2023-02-27T22:57:05.973Z,5.00
2023-02-27T22:59:33.996Z,5.78
2023-02-27T23:02:01.986Z,5.50
2023-02-27T23:04:29.914Z,5.10
2023-02-27T23:06:57.766Z,4.90
2023-02-27T23:09:27.487Z,4.90
2023-02-27T23:11:55.482Z,4.85
2023-02-27T23:14:23.745Z,4.90
2023-02-27T23:16:51.808Z,5.00
2023-02-27T23:19:21.762Z,5.28
2023-02-27T23:21:50.099Z,4.97
2023-02-27T23:24:19.538Z,5.22
2023-02-27T23:26:50.446Z,4.70
2023-02-27T23:29:18.523Z,4.70
2023-02-27T23:31:46.477Z,4.47
2023-02-27T23:34:14.450Z,5.28
2023-02-27T23:36:42.323Z,4.70
2023-02-27T23:39:10.652Z,5.15
2023-02-27T23:41:38.541Z,5.10
2023-02-27T23:44:25.628Z,4.43
2023-02-27T23:46:53.477Z,4.95
2023-02-27T23:49:38.897Z,5.25
2023-02-27T23:52:06.784Z,4.95
2023-02-27T23:54:34.693Z,5.35
2023-02-27T23:57:02.533Z,5.93
2023-02-27T23:59:31.814Z,5.97
